Time;durP1;ratioP1;P1;durP2;ratioP2;P2;SDS_P1;SDS_P2;PMS_P1;PMS_P2;Temp;Humidity;BMP_temperature;BMP_pressure;BME280_temperature;BME280_humidity;BME280_pressure;Samples;Min_cycle;Max_cycle;Signal;HPM_P1;HPM_P2
2022/03/09 00:00:08;;;;;;;9.55;4.32;;;2.00;91.70;;;;;;5011191;28;20053;-88
2022/03/09 00:02:34;;;;;;;10.05;5.15;;;1.90;92.40;;;;;;5014276;28;20056;-88
2022/03/09 00:05:00;;;;;;;10.73;4.97;;;1.90;92.70;;;;;;4992491;28;20050;-88
2022/03/09 00:07:27;;;;;;;8.93;4.78;;;1.90;93.20;;;;;;4995069;28;20494;-88
2022/03/09 00:09:53;;;;;;;9.65;4.60;;;1.90;94.40;;;;;;4994203;28;20045;-87
2022/03/09 00:12:19;;;;;;;10.65;4.45;;;1.80;93.80;;;;;;5011218;28;20053;-87
2022/03/09 00:14:44;;;;;;;10.55;4.78;;;1.80;93.60;;;;;;5010527;28;20041;-88
2022/03/09 00:17:10;;;;;;;10.73;5.05;;;1.80;93.30;;;;;;4994860;28;20056;-87
2022/03/09 00:19:36;;;;;;;11.82;4.75;;;1.80;93.40;;;;;;5007286;28;20446;-88
2022/03/09 00:22:02;;;;;;;10.45;5.05;;;1.70;93.50;;;;;;4997892;28;20056;-88
2022/03/09 00:24:28;;;;;;;9.15;4.47;;;1.70;93.30;;;;;;4992134;28;20041;-86
2022/03/09 00:26:53;;;;;;;10.18;4.72;;;1.70;93.30;;;;;;5007278;28;20057;-87
2022/03/09 00:29:19;;;;;;;11.30;4.93;;;1.70;93.00;;;;;;5009514;28;20201;-87
2022/03/09 00:31:45;;;;;;;11.57;4.68;;;1.70;92.80;;;;;;5010007;28;20045;-87
2022/03/09 00:34:10;;;;;;;10.80;4.70;;;1.70;92.70;;;;;;4992063;28;20041;-87
2022/03/09 00:36:36;;;;;;;9.93;4.75;;;1.70;92.70;;;;;;5000065;28;20050;-87
2022/03/09 00:39:03;;;;;;;10.00;4.60;;;1.60;92.90;;;;;;4981162;28;20044;-87
2022/03/09 00:41:29;;;;;;;12.35;4.78;;;1.60;93.30;;;;;;4993430;28;20092;-88
2022/03/09 00:43:55;;;;;;;10.07;4.40;;;1.50;93.20;;;;;;4980744;28;20459;-87
2022/03/09 00:46:20;;;;;;;10.23;4.85;;;1.50;93.20;;;;;;4992517;28;20053;-87
2022/03/09 00:48:46;;;;;;;10.60;4.90;;;1.50;93.50;;;;;;4998978;28;20391;-87
2022/03/09 00:51:11;;;;;;;10.60;4.35;;;1.50;93.50;;;;;;4977840;28;20103;-87
2022/03/09 00:53:38;;;;;;;10.55;4.97;;;1.50;93.70;;;;;;4981002;28;20048;-87
2022/03/09 00:56:03;;;;;;;10.05;4.10;;;1.50;93.90;;;;;;5009154;28;20081;-87
2022/03/09 00:58:29;;;;;;;10.70;4.38;;;1.40;94.10;;;;;;5005110;28;20119;-87
2022/03/09 01:00:54;;;;;;;8.82;4.55;;;1.30;94.20;;;;;;4999782;28;20651;-87
2022/03/09 01:03:20;;;;;;;10.40;4.63;;;1.30;94.20;;;;;;4992068;28;20470;-87
2022/03/09 01:05:46;;;;;;;10.30;4.65;;;1.30;94.40;;;;;;5003686;28;20120;-87
2022/03/09 01:08:11;;;;;;;10.27;4.90;;;1.20;94.90;;;;;;4994107;28;20363;-87
2022/03/09 01:10:37;;;;;;;10.02;5.05;;;1.20;94.80;;;;;;4993489;28;20048;-87
2022/03/09 01:13:03;;;;;;;9.75;5.13;;;1.20;95.10;;;;;;4996213;28;20129;-87
2022/03/09 01:15:29;;;;;;;9.95;4.95;;;1.20;95.30;;;;;;4993162;28;20052;-87
2022/03/09 01:17:54;;;;;;;9.98;4.97;;;1.20;95.60;;;;;;4998765;28;20040;-87
2022/03/09 01:20:20;;;;;;;11.95;5.00;;;1.10;96.00;;;;;;5001270;28;20037;-88
2022/03/09 01:22:46;;;;;;;11.38;4.93;;;1.10;95.90;;;;;;5019884;28;20188;-87
2022/03/09 01:25:11;;;;;;;10.23;4.88;;;1.00;96.00;;;;;;4991594;28;20045;-87
2022/03/09 01:27:37;;;;;;;10.70;5.22;;;1.00;96.50;;;;;;5013400;28;20391;-87
2022/03/09 01:30:04;;;;;;;10.35;4.65;;;1.00;96.40;;;;;;5034882;28;20069;-87
2022/03/09 01:32:29;;;;;;;9.73;5.03;;;1.00;96.70;;;;;;4999952;28;20111;-87
2022/03/09 01:34:55;;;;;;;10.95;5.57;;;0.90;97.10;;;;;;4983397;28;20524;-87
2022/03/09 01:37:20;;;;;;;10.35;4.97;;;0.90;97.10;;;;;;4985884;28;20041;-88
2022/03/09 01:39:46;;;;;;;10.68;5.18;;;0.90;97.10;;;;;;5001082;28;20038;-87
2022/03/09 01:42:12;;;;;;;10.68;4.82;;;0.90;97.50;;;;;;5014985;28;20099;-88
2022/03/09 01:44:38;;;;;;;11.77;5.30;;;0.80;97.60;;;;;;4996412;28;20077;-88
2022/03/09 01:47:04;;;;;;;12.38;5.68;;;0.80;98.20;;;;;;4996591;28;20429;-87
2022/03/09 01:49:29;;;;;;;12.45;6.03;;;0.80;99.10;;;;;;4980124;28;20061;-88
2022/03/09 01:51:58;;;;;;;12.50;5.57;;;0.70;99.00;;;;;;4997016;28;20406;-93
2022/03/09 01:54:24;;;;;;;11.63;5.65;;;0.70;99.70;;;;;;4991682;28;20038;-90
2022/03/09 01:56:50;;;;;;;12.57;5.68;;;0.70;99.60;;;;;;5014176;28;20191;-88
2022/03/09 01:59:16;;;;;;;10.88;5.53;;;0.70;99.80;;;;;;5001753;28;20064;-88
2022/03/09 02:01:43;;;;;;;10.63;5.60;;;0.70;99.60;;;;;;5007493;28;20137;-88
2022/03/09 02:04:10;;;;;;;9.85;4.90;;;0.70;99.80;;;;;;4990923;28;20037;-88
2022/03/09 02:06:36;;;;;;;11.15;5.78;;;0.70;99.90;;;;;;5012969;28;20054;-87
2022/03/09 02:11:50;;;;;;;11.43;5.25;;;0.60;99.90;;;;;;5033523;28;20053;-88
2022/03/09 02:14:36;;;;;;;10.43;5.28;;;0.60;99.90;;;;;;5008062;28;20112;-88
2022/03/09 02:17:08;;;;;;;11.85;5.78;;;0.60;99.90;;;;;;5019352;28;20040;-88
2022/03/09 02:19:34;;;;;;;10.98;5.35;;;0.60;99.90;;;;;;5020733;28;20045;-88
2022/03/09 02:22:19;;;;;;;11.15;5.43;;;0.50;99.90;;;;;;5031498;28;20113;-88
2022/03/09 02:24:49;;;;;;;12.25;5.93;;;0.50;99.90;;;;;;4986287;28;20038;-88
2022/03/09 02:27:15;;;;;;;10.40;5.45;;;0.50;99.90;;;;;;4995044;28;20128;-88
2022/03/09 02:29:41;;;;;;;13.45;6.07;;;0.50;99.90;;;;;;5002710;28;20532;-87
2022/03/09 02:32:07;;;;;;;11.32;5.50;;;0.50;99.90;;;;;;5012170;28;20045;-88
2022/03/09 02:34:32;;;;;;;10.93;5.70;;;0.60;99.90;;;;;;5003058;28;20070;-88
2022/03/09 02:36:59;;;;;;;11.80;6.35;;;0.60;99.90;;;;;;5015613;28;20034;-88
2022/03/09 02:39:25;;;;;;;11.80;5.13;;;0.60;99.90;;;;;;5024992;28;20041;-88
2022/03/09 02:41:52;;;;;;;12.18;6.30;;;0.60;99.90;;;;;;5020111;28;20048;-88
2022/03/09 02:44:17;;;;;;;11.32;5.75;;;0.60;99.90;;;;;;5002469;28;20042;-88
2022/03/09 02:46:43;;;;;;;11.05;5.55;;;0.60;99.90;;;;;;5000370;28;20049;-88
2022/03/09 02:49:08;;;;;;;13.63;6.70;;;0.50;99.90;;;;;;4979604;28;20126;-88
2022/03/09 02:51:34;;;;;;;13.60;6.40;;;0.60;99.90;;;;;;4985101;28;20041;-87
2022/03/09 02:53:59;;;;;;;12.07;6.40;;;0.60;99.90;;;;;;5022120;28;20033;-87
2022/03/09 02:56:25;;;;;;;14.88;6.60;;;0.60;99.90;;;;;;4996529;28;20107;-87
2022/03/09 02:58:51;;;;;;;11.75;5.93;;;0.50;99.90;;;;;;4999612;28;20116;-87
2022/03/09 03:01:16;;;;;;;17.60;6.35;;;0.50;99.90;;;;;;4996113;28;20056;-88
2022/03/09 03:03:43;;;;;;;12.25;5.95;;;0.50;99.90;;;;;;4981752;28;20034;-88
2022/03/09 03:06:10;;;;;;;12.93;6.53;;;0.50;99.90;;;;;;5014589;28;20108;-87
2022/03/09 03:08:37;;;;;;;11.70;6.40;;;0.60;99.90;;;;;;5007774;28;20053;-87
2022/03/09 03:11:04;;;;;;;13.82;6.43;;;0.60;99.90;;;;;;5008668;28;20053;-87
2022/03/09 03:13:30;;;;;;;12.85;6.60;;;0.60;99.90;;;;;;4998574;28;20046;-87
2022/03/09 03:15:55;;;;;;;13.40;7.10;;;0.50;99.90;;;;;;4998921;28;20054;-87
2022/03/09 03:18:21;;;;;;;12.70;6.95;;;0.50;99.90;;;;;;5025606;28;20060;-87
2022/03/09 03:20:46;;;;;;;10.65;5.50;;;0.50;99.90;;;;;;5000571;28;20085;-87
2022/03/09 03:23:12;;;;;;;12.25;6.25;;;0.50;99.90;;;;;;5005174;28;20052;-87
2022/03/09 03:25:38;;;;;;;11.20;6.10;;;0.50;99.90;;;;;;5024909;28;20068;-87
2022/03/09 03:28:03;;;;;;;13.52;6.68;;;0.50;99.90;;;;;;4985512;28;20094;-87
2022/03/09 03:30:29;;;;;;;13.57;6.65;;;0.50;99.90;;;;;;5011627;28;20418;-87
2022/03/09 03:32:54;;;;;;;12.68;6.40;;;0.40;99.90;;;;;;5004715;28;20049;-87
2022/03/09 03:35:20;;;;;;;11.98;6.68;;;0.40;99.90;;;;;;5002240;28;20049;-87
2022/03/09 03:37:46;;;;;;;12.93;6.45;;;0.30;99.90;;;;;;5019320;28;20045;-87
2022/03/09 03:40:12;;;;;;;13.43;6.53;;;0.40;99.90;;;;;;5026724;28;20478;-87
2022/03/09 03:42:38;;;;;;;13.52;6.80;;;0.30;99.90;;;;;;5029918;28;20128;-87
2022/03/09 03:45:04;;;;;;;15.27;6.75;;;0.30;99.90;;;;;;5028561;28;20081;-87
2022/03/09 03:47:30;;;;;;;12.18;6.28;;;0.30;99.90;;;;;;5043185;28;20046;-86
2022/03/09 03:49:55;;;;;;;14.85;6.60;;;0.30;99.90;;;;;;5021881;28;20398;-86
2022/03/09 03:52:21;;;;;;;12.82;6.38;;;0.30;99.90;;;;;;5016745;28;20071;-87
2022/03/09 03:54:47;;;;;;;12.02;6.55;;;0.30;99.90;;;;;;5001190;28;20049;-88
2022/03/09 03:57:12;;;;;;;12.50;6.25;;;0.30;99.90;;;;;;5012405;28;20100;-87
2022/03/09 03:59:38;;;;;;;14.68;7.28;;;0.20;99.90;;;;;;5007021;28;20037;-87
2022/03/09 04:02:03;;;;;;;13.98;6.95;;;0.20;99.90;;;;;;5010669;28;20046;-86
2022/03/09 04:04:29;;;;;;;12.40;6.38;;;0.20;99.90;;;;;;4979230;28;20133;-87
2022/03/09 04:06:54;;;;;;;13.45;7.03;;;0.20;99.90;;;;;;5010127;28;20045;-87
2022/03/09 04:09:20;;;;;;;12.48;7.00;;;0.20;99.90;;;;;;5011329;28;20162;-87
2022/03/09 04:11:45;;;;;;;13.88;6.57;;;0.20;99.90;;;;;;4996222;28;20108;-86
2022/03/09 04:14:11;;;;;;;14.27;7.10;;;0.20;99.90;;;;;;5012015;28;20041;-86
2022/03/09 04:16:36;;;;;;;13.63;7.63;;;0.10;99.90;;;;;;5012908;28;20049;-87
2022/03/09 04:19:02;;;;;;;15.02;7.65;;;0.10;99.90;;;;;;5019003;28;20038;-86
2022/03/09 04:21:28;;;;;;;13.43;6.70;;;0.10;99.90;;;;;;4994894;28;20046;-87
2022/03/09 04:23:53;;;;;;;14.25;6.68;;;0.10;99.90;;;;;;4993533;28;20530;-87
2022/03/09 04:26:19;;;;;;;14.35;6.47;;;0.10;99.90;;;;;;5013244;28;20050;-87
2022/03/09 04:28:44;;;;;;;14.15;7.40;;;0.10;99.90;;;;;;5007465;28;20089;-86
2022/03/09 04:31:10;;;;;;;14.32;7.13;;;0.00;99.90;;;;;;5003809;28;20068;-87
2022/03/09 04:33:36;;;;;;;14.10;7.05;;;0.00;99.90;;;;;;4998701;28;20376;-86
2022/03/09 04:36:01;;;;;;;15.75;7.10;;;0.00;99.90;;;;;;5012511;28;20048;-86
2022/03/09 04:38:28;;;;;;;13.23;6.65;;;0.00;99.90;;;;;;5004112;28;20068;-86
2022/03/09 04:40:53;;;;;;;13.23;6.72;;;0.00;99.90;;;;;;5010657;28;20049;-86
2022/03/09 04:43:19;;;;;;;15.98;7.30;;;0.00;99.90;;;;;;5008789;28;20041;-87
2022/03/09 04:45:45;;;;;;;15.10;7.25;;;0.00;99.90;;;;;;5006948;28;20057;-86
2022/03/09 04:48:11;;;;;;;14.40;7.72;;;0.00;99.90;;;;;;4999869;28;20094;-87
2022/03/09 04:50:36;;;;;;;14.50;7.68;;;0.00;99.90;;;;;;5028142;28;20511;-86
2022/03/09 04:53:02;;;;;;;14.43;7.50;;;0.00;99.90;;;;;;5026233;28;20048;-86
2022/03/09 04:55:28;;;;;;;14.55;8.45;;;0.00;99.90;;;;;;5011527;28;20072;-86
2022/03/09 04:57:54;;;;;;;13.43;7.63;;;0.00;99.90;;;;;;4996484;28;20495;-86
2022/03/09 05:00:19;;;;;;;12.65;7.20;;;-0.10;99.90;;;;;;4997357;28;20053;-86
2022/03/09 05:02:45;;;;;;;15.82;7.50;;;-0.10;99.90;;;;;;4998141;28;20057;-86
2022/03/09 05:05:10;;;;;;;13.90;7.57;;;-0.20;99.90;;;;;;5028170;28;20053;-86
2022/03/09 05:07:42;;;;;;;12.52;7.38;;;-0.10;99.90;;;;;;5026666;28;20410;-86
2022/03/09 05:10:10;;;;;;;14.75;7.63;;;-0.20;99.90;;;;;;4994638;28;20045;-86
2022/03/09 05:12:36;;;;;;;14.70;7.25;;;-0.20;99.90;;;;;;5008480;28;20034;-86
2022/03/09 05:15:05;;;;;;;13.57;7.22;;;-0.20;99.90;;;;;;5009710;28;20038;-86
2022/03/09 05:17:31;;;;;;;14.48;7.13;;;-0.20;99.90;;;;;;4979899;28;20560;-86
2022/03/09 05:19:57;;;;;;;14.77;7.18;;;-0.30;99.90;;;;;;5009592;28;20050;-86
2022/03/09 05:22:22;;;;;;;15.55;8.00;;;-0.30;99.90;;;;;;4980384;28;20072;-86
2022/03/09 05:24:48;;;;;;;13.60;7.22;;;-0.30;99.90;;;;;;5010342;28;20045;-85
2022/03/09 05:27:13;;;;;;;14.10;7.35;;;-0.30;99.90;;;;;;4980230;28;20054;-86
2022/03/09 05:29:39;;;;;;;13.93;7.70;;;-0.30;99.90;;;;;;4993403;28;20048;-85
2022/03/09 05:32:05;;;;;;;13.65;7.38;;;-0.30;99.90;;;;;;4982232;28;20049;-85
2022/03/09 05:34:31;;;;;;;17.55;7.65;;;-0.40;99.90;;;;;;5024301;28;20037;-85
2022/03/09 05:36:56;;;;;;;12.73;7.10;;;-0.40;99.90;;;;;;4990899;28;20457;-84
2022/03/09 05:39:22;;;;;;;14.13;8.10;;;-0.30;99.90;;;;;;4990722;28;20120;-86
2022/03/09 05:41:47;;;;;;;14.73;7.35;;;-0.40;99.90;;;;;;5009374;28;20057;-87
2022/03/09 05:44:14;;;;;;;14.23;7.00;;;-0.40;99.90;;;;;;5014816;28;20809;-87
2022/03/09 05:46:39;;;;;;;16.52;7.38;;;-0.40;99.90;;;;;;5008619;28;20514;-88
2022/03/09 05:49:05;;;;;;;15.35;7.32;;;-0.40;99.90;;;;;;5003456;28;20053;-87
2022/03/09 05:51:31;;;;;;;14.77;6.85;;;-0.40;99.90;;;;;;4994623;28;20050;-88
2022/03/09 05:53:57;;;;;;;14.85;7.35;;;-0.40;99.90;;;;;;4989228;28;20056;-87
2022/03/09 05:56:23;;;;;;;14.25;7.60;;;-0.40;99.90;;;;;;5009019;28;20475;-85
2022/03/09 05:58:49;;;;;;;15.32;7.55;;;-0.40;99.90;;;;;;4989124;28;20395;-87
2022/03/09 06:01:14;;;;;;;14.00;7.25;;;-0.40;99.90;;;;;;5011319;28;20046;-86
2022/03/09 06:03:40;;;;;;;15.57;7.50;;;-0.40;99.90;;;;;;5003549;28;20053;-85
2022/03/09 06:06:06;;;;;;;13.73;6.95;;;-0.40;99.90;;;;;;5013629;28;20056;-89
2022/03/09 06:08:32;;;;;;;14.98;7.93;;;-0.40;99.90;;;;;;5015597;28;20099;-86
2022/03/09 06:10:57;;;;;;;14.00;6.18;;;-0.40;99.90;;;;;;5006177;28;20503;-88
2022/03/09 06:13:23;;;;;;;13.43;6.05;;;-0.40;99.90;;;;;;4993689;28;20049;-87
2022/03/09 06:15:49;;;;;;;14.05;7.63;;;-0.40;99.90;;;;;;5016070;28;20057;-87
2022/03/09 06:18:15;;;;;;;12.23;6.40;;;-0.40;99.90;;;;;;5001198;28;20053;-87
2022/03/09 06:20:41;;;;;;;13.07;6.85;;;-0.40;99.90;;;;;;5005139;28;20440;-87
2022/03/09 06:23:07;;;;;;;13.30;6.93;;;-0.40;99.90;;;;;;5011937;28;20076;-87
2022/03/09 06:25:34;;;;;;;14.18;7.03;;;-0.40;99.90;;;;;;4989667;28;20049;-87
2022/03/09 06:28:00;;;;;;;13.50;7.30;;;-0.40;99.90;;;;;;5011828;28;20088;-86
2022/03/09 06:30:26;;;;;;;15.00;7.53;;;-0.40;99.90;;;;;;5007442;28;20057;-85
2022/03/09 06:32:52;;;;;;;13.45;7.43;;;-0.40;99.90;;;;;;4993634;28;20552;-85
2022/03/09 06:35:18;;;;;;;14.85;7.35;;;-0.40;99.90;;;;;;4992663;28;20052;-86
2022/03/09 06:37:43;;;;;;;12.88;7.13;;;-0.30;99.90;;;;;;5010065;28;20037;-87
2022/03/09 06:40:10;;;;;;;14.68;7.60;;;-0.30;99.90;;;;;;4988154;28;20557;-87
2022/03/09 06:42:36;;;;;;;13.57;7.00;;;-0.30;99.90;;;;;;4993853;28;20042;-86
2022/03/09 06:45:02;;;;;;;13.02;6.50;;;-0.30;99.90;;;;;;4994406;28;20060;-87
2022/03/09 06:47:28;;;;;;;12.98;6.75;;;-0.20;99.90;;;;;;4978585;28;20390;-86
2022/03/09 06:49:53;;;;;;;15.38;7.53;;;-0.20;99.90;;;;;;4979878;28;20056;-87
2022/03/09 06:52:19;;;;;;;14.65;7.25;;;-0.10;99.90;;;;;;5003310;28;20088;-86
2022/03/09 06:54:45;;;;;;;14.60;7.43;;;-0.10;99.90;;;;;;5007506;28;20136;-87
2022/03/09 06:57:10;;;;;;;13.73;7.20;;;0.00;99.90;;;;;;5012521;28;20041;-87
2022/03/09 06:59:37;;;;;;;14.77;7.57;;;0.10;99.90;;;;;;5028628;28;20126;-86
2022/03/09 07:02:03;;;;;;;14.70;7.10;;;0.10;99.90;;;;;;5001276;28;20560;-87
2022/03/09 07:04:29;;;;;;;13.82;7.10;;;0.20;99.90;;;;;;4995627;28;20050;-86
2022/03/09 07:06:55;;;;;;;15.93;7.28;;;0.30;99.90;;;;;;5009616;28;20052;-88
2022/03/09 07:09:20;;;;;;;13.90;6.88;;;0.30;99.90;;;;;;5010007;28;20124;-87
2022/03/09 07:11:46;;;;;;;15.77;6.97;;;0.40;99.90;;;;;;5009904;28;20049;-88
2022/03/09 07:14:11;;;;;;;16.77;7.68;;;0.50;99.90;;;;;;4999273;28;21062;-88
2022/03/09 07:16:37;;;;;;;15.13;7.45;;;0.60;99.90;;;;;;4999815;28;20048;-86
2022/03/09 07:19:03;;;;;;;14.68;6.97;;;0.70;99.90;;;;;;5021549;28;20080;-87
2022/03/09 07:21:29;;;;;;;14.70;7.78;;;0.70;99.90;;;;;;4995314;28;20042;-87
2022/03/09 07:23:55;;;;;;;14.02;7.22;;;0.80;99.90;;;;;;5007445;28;20046;-87
2022/03/09 07:26:20;;;;;;;13.20;7.22;;;0.90;99.90;;;;;;5001613;28;20398;-88
2022/03/09 07:28:46;;;;;;;12.60;6.95;;;0.90;99.90;;;;;;4984470;28;20103;-88
2022/03/09 07:31:11;;;;;;;14.15;7.38;;;1.00;99.90;;;;;;4984823;28;20034;-89
2022/03/09 07:33:37;;;;;;;15.15;7.35;;;1.10;99.90;;;;;;5010462;28;20049;-86
2022/03/09 07:36:03;;;;;;;14.18;6.90;;;1.20;99.90;;;;;;5010394;28;20379;-86
2022/03/09 07:38:29;;;;;;;14.98;7.97;;;1.30;99.90;;;;;;4999983;28;20076;-85
2022/03/09 07:40:55;;;;;;;13.80;7.20;;;1.30;99.90;;;;;;5018407;28;20093;-84
2022/03/09 07:43:20;;;;;;;15.35;7.13;;;1.50;99.90;;;;;;4976265;28;20046;-85
2022/03/09 07:45:46;;;;;;;12.60;7.35;;;1.50;99.90;;;;;;5016135;28;20068;-85
2022/03/09 07:48:13;;;;;;;15.20;7.07;;;1.60;99.90;;;;;;5006029;28;20037;-84
2022/03/09 07:50:38;;;;;;;14.10;6.95;;;1.70;99.90;;;;;;5001174;28;20046;-85
2022/03/09 07:53:05;;;;;;;13.63;7.28;;;1.80;99.90;;;;;;5027560;28;20402;-85
2022/03/09 07:55:31;;;;;;;14.85;7.95;;;1.90;99.90;;;;;;5010812;28;20041;-85
2022/03/09 07:57:57;;;;;;;13.80;7.45;;;1.90;99.90;;;;;;5003891;28;20383;-85
2022/03/09 08:00:22;;;;;;;12.57;6.63;;;2.00;99.90;;;;;;5022214;28;20050;-86
2022/03/09 08:02:48;;;;;;;14.13;7.32;;;2.10;99.90;;;;;;5010342;28;20056;-86
2022/03/09 08:05:14;;;;;;;13.75;6.88;;;2.20;99.90;;;;;;5009657;28;20302;-86
2022/03/09 08:07:40;;;;;;;14.63;7.55;;;2.30;99.90;;;;;;5007213;28;20156;-85
2022/03/09 08:10:06;;;;;;;14.20;7.90;;;2.40;99.90;;;;;;5011115;28;20041;-86
2022/03/09 08:12:31;;;;;;;14.82;7.30;;;2.50;99.90;;;;;;5011655;28;20041;-86
2022/03/09 08:14:57;;;;;;;14.00;7.72;;;2.60;99.90;;;;;;5009587;28;20049;-87
2022/03/09 08:17:22;;;;;;;15.35;7.80;;;2.70;99.90;;;;;;5017645;28;20042;-87
2022/03/09 08:19:48;;;;;;;15.27;7.18;;;2.80;99.90;;;;;;5010848;28;20552;-86
2022/03/09 08:22:13;;;;;;;12.80;7.18;;;2.90;99.90;;;;;;5001399;28;20045;-86
2022/03/09 08:24:39;;;;;;;14.07;7.68;;;3.00;99.90;;;;;;5006091;28;20083;-85
2022/03/09 08:27:05;;;;;;;15.23;7.78;;;3.10;99.90;;;;;;5009150;28;20045;-86
2022/03/09 08:29:30;;;;;;;15.23;7.72;;;3.20;99.90;;;;;;5004457;28;20044;-84
2022/03/09 08:31:56;;;;;;;14.15;7.55;;;3.30;99.90;;;;;;4994747;28;20475;-86
2022/03/09 08:34:22;;;;;;;12.90;6.68;;;3.40;99.90;;;;;;5013898;28;20042;-86
2022/03/09 08:36:47;;;;;;;13.95;7.22;;;3.50;99.90;;;;;;5016851;28;20050;-86
2022/03/09 08:39:13;;;;;;;15.13;7.70;;;3.60;99.30;;;;;;5000579;28;20466;-86
2022/03/09 08:41:39;;;;;;;14.18;7.20;;;3.70;98.80;;;;;;5015500;28;20053;-87
2022/03/09 08:44:04;;;;;;;11.63;6.90;;;3.80;98.50;;;;;;5008457;28;20037;-87
2022/03/09 08:46:30;;;;;;;12.60;7.13;;;3.90;98.10;;;;;;5002397;28;20049;-86
2022/03/09 08:48:56;;;;;;;13.95;6.95;;;4.00;97.70;;;;;;5011041;28;20438;-84
2022/03/09 08:51:22;;;;;;;12.82;7.18;;;4.00;97.10;;;;;;5026136;28;20037;-85
2022/03/09 08:53:48;;;;;;;14.27;7.68;;;4.10;96.30;;;;;;4992426;28;20439;-85
2022/03/09 08:56:14;;;;;;;12.60;6.68;;;4.20;95.50;;;;;;4994942;28;20088;-86
2022/03/09 08:58:40;;;;;;;14.02;7.53;;;4.40;95.00;;;;;;5018853;28;20080;-86
2022/03/09 09:01:06;;;;;;;12.65;7.03;;;4.40;94.60;;;;;;5010435;28;20060;-88
2022/03/09 09:03:32;;;;;;;13.05;7.47;;;4.60;94.20;;;;;;5016106;28;20060;-86
2022/03/09 09:05:58;;;;;;;14.55;8.25;;;4.70;93.50;;;;;;5023864;28;20041;-86
2022/03/09 09:08:24;;;;;;;12.98;7.93;;;4.70;92.70;;;;;;5019092;28;20499;-88
2022/03/09 09:10:49;;;;;;;13.93;7.82;;;4.80;91.60;;;;;;5020993;28;20060;-86
2022/03/09 09:13:16;;;;;;;12.75;7.25;;;4.90;91.00;;;;;;5027170;28;20179;-85
2022/03/09 09:15:42;;;;;;;12.88;7.80;;;5.10;89.80;;;;;;5022908;28;20053;-86
2022/03/09 09:18:08;;;;;;;13.10;8.07;;;5.20;89.00;;;;;;5022166;28;20041;-85
2022/03/09 09:20:34;;;;;;;14.57;8.00;;;5.30;87.60;;;;;;5019182;28;20037;-85
2022/03/09 09:23:00;;;;;;;14.45;8.15;;;5.40;86.30;;;;;;4996446;28;20046;-85
2022/03/09 09:25:27;;;;;;;14.88;8.50;;;5.50;85.40;;;;;;4993114;28;20056;-86
2022/03/09 09:27:54;;;;;;;13.73;7.47;;;5.70;83.30;;;;;;5010992;28;20048;-85
2022/03/09 09:30:21;;;;;;;14.07;8.23;;;5.80;81.60;;;;;;4994594;28;20107;-85
2022/03/09 09:32:47;;;;;;;13.52;8.00;;;5.90;80.80;;;;;;5005603;28;20466;-91
2022/03/09 09:35:14;;;;;;;12.00;8.20;;;6.00;79.90;;;;;;4992851;28;20302;-86
2022/03/09 09:37:41;;;;;;;12.40;7.63;;;6.10;79.30;;;;;;4993949;28;20045;-85
2022/03/09 09:40:08;;;;;;;11.90;7.70;;;6.20;77.90;;;;;;5010705;28;20059;-85
2022/03/09 09:42:34;;;;;;;11.70;7.32;;;6.30;77.10;;;;;;5010135;28;20116;-85
2022/03/09 09:45:00;;;;;;;12.77;8.07;;;6.40;76.00;;;;;;5010994;28;20049;-86
2022/03/09 09:47:31;;;;;;;12.60;8.48;;;6.50;75.40;;;;;;5008362;28;20041;-85
2022/03/09 09:49:58;;;;;;;13.93;8.82;;;6.60;73.40;;;;;;5010707;28;20052;-86
2022/03/09 09:52:28;;;;;;;12.18;8.00;;;6.60;72.60;;;;;;5003131;28;20388;-87
2022/03/09 09:54:56;;;;;;;14.27;7.95;;;6.70;72.30;;;;;;4980963;28;20054;-86
2022/03/09 09:57:23;;;;;;;12.63;8.25;;;6.80;71.60;;;;;;5003186;28;20053;-87
2022/03/09 09:59:52;;;;;;;13.27;8.27;;;6.90;70.70;;;;;;5015163;28;20061;-92
2022/03/09 10:02:17;;;;;;;12.43;8.70;;;7.00;70.50;;;;;;5008814;28;20462;-90
2022/03/09 10:04:44;;;;;;;13.68;8.25;;;7.10;70.20;;;;;;4999754;28;20175;-90
2022/03/09 10:07:10;;;;;;;11.85;7.60;;;7.10;68.70;;;;;;4999370;28;20515;-90
2022/03/09 10:09:40;;;;;;;13.63;9.13;;;7.20;68.90;;;;;;4995368;28;20048;-91
2022/03/09 10:12:07;;;;;;;12.35;8.55;;;7.20;68.10;;;;;;5017770;28;20397;-90
2022/03/09 10:14:50;;;;;;;14.10;8.38;;;7.30;68.30;;;;;;5015770;28;20411;-90
2022/03/09 10:17:26;;;;;;;13.13;8.48;;;7.40;67.40;;;;;;5002809;28;20056;-92
2022/03/09 10:19:55;;;;;;;13.43;8.23;;;7.40;66.10;;;;;;5007328;28;20033;-88
2022/03/09 10:22:41;;;;;;;13.02;8.23;;;7.60;66.40;;;;;;5029561;28;20064;-88
2022/03/09 10:25:18;;;;;;;14.02;8.50;;;7.70;66.00;;;;;;4977759;28;20294;-87
2022/03/09 10:27:49;;;;;;;12.75;8.30;;;7.70;65.70;;;;;;5007727;28;20056;-87
2022/03/09 10:30:23;;;;;;;13.60;9.00;;;7.80;65.40;;;;;;5009850;28;20052;-88
2022/03/09 10:32:53;;;;;;;14.07;8.85;;;7.80;65.10;;;;;;5027950;28;20050;-88
2022/03/09 10:35:29;;;;;;;13.88;8.63;;;7.90;64.70;;;;;;5013494;28;20037;-88
2022/03/09 10:37:56;;;;;;;12.75;8.68;;;8.00;64.00;;;;;;5023937;28;20325;-88
2022/03/09 10:40:24;;;;;;;13.23;9.15;;;8.10;63.80;;;;;;4998044;28;20087;-88
2022/03/09 10:42:50;;;;;;;13.90;9.35;;;8.10;63.80;;;;;;4995859;28;20089;-88
2022/03/09 10:45:17;;;;;;;13.27;8.85;;;8.20;62.20;;;;;;4994334;28;20054;-88
2022/03/09 10:47:48;;;;;;;14.13;9.40;;;8.30;62.20;;;;;;5002014;28;20053;-88
2022/03/09 10:50:15;;;;;;;15.05;10.57;;;8.40;62.00;;;;;;5009001;28;20046;-89
2022/03/09 10:52:42;;;;;;;13.90;9.07;;;8.50;61.70;;;;;;5006167;28;20045;-88
2022/03/09 10:55:25;;;;;;;12.55;9.38;;;8.60;61.70;;;;;;5024578;28;20028;-88
2022/03/09 10:57:52;;;;;;;14.10;9.30;;;8.60;60.90;;;;;;5037103;28;20418;-90
2022/03/09 11:00:43;;;;;;;15.20;10.00;;;8.70;61.00;;;;;;5022642;28;20029;-89
2022/03/09 11:03:15;;;;;;;15.48;9.27;;;8.70;60.90;;;;;;5019429;28;20050;-86
2022/03/09 11:05:58;;;;;;;14.70;9.68;;;8.70;61.00;;;;;;5005100;28;20056;-87
2022/03/09 11:08:26;;;;;;;14.27;9.50;;;8.90;60.30;;;;;;4995876;28;20095;-87
2022/03/09 11:10:54;;;;;;;13.93;9.00;;;8.90;60.40;;;;;;5004849;28;20050;-95
2022/03/09 11:13:21;;;;;;;14.30;9.82;;;9.00;59.90;;;;;;5013988;28;20463;-88
2022/03/09 11:15:48;;;;;;;14.15;9.65;;;9.00;60.00;;;;;;5014909;28;20045;-88
2022/03/09 11:18:18;;;;;;;13.85;9.70;;;9.10;59.30;;;;;;5028643;28;20064;-88
2022/03/09 11:20:44;;;;;;;13.05;9.35;;;9.20;59.10;;;;;;5019216;28;21226;-87
2022/03/09 11:23:12;;;;;;;14.63;9.73;;;9.30;58.20;;;;;;5009153;28;20103;-88
2022/03/09 11:25:42;;;;;;;14.63;9.48;;;9.40;57.50;;;;;;5004093;28;20057;-87
2022/03/09 11:28:08;;;;;;;13.67;9.40;;;9.50;57.70;;;;;;5029205;28;20068;-91
2022/03/09 11:30:34;;;;;;;13.07;9.20;;;9.50;57.60;;;;;;5023226;28;20450;-87
2022/03/09 11:33:01;;;;;;;14.02;9.45;;;9.60;56.90;;;;;;5009587;28;20069;-88
2022/03/09 11:35:38;;;;;;;12.63;9.50;;;9.70;57.30;;;;;;5018753;28;20120;-88
2022/03/09 11:38:33;;;;;;;13.20;9.65;;;9.70;56.30;;;;;;5008784;28;20040;-88
2022/03/09 11:41:18;;;;;;;14.52;9.70;;;9.80;55.10;;;;;;5004227;28;20125;-88
2022/03/09 11:43:44;;;;;;;14.38;10.02;;;9.90;54.00;;;;;;5015039;28;20132;-89
2022/03/09 11:46:09;;;;;;;14.30;9.15;;;10.00;55.70;;;;;;5021669;28;20120;-88
2022/03/09 11:48:52;;;;;;;13.77;9.15;;;10.00;55.60;;;;;;5019542;28;20033;-90
2022/03/09 11:51:28;;;;;;;13.45;9.27;;;10.00;55.50;;;;;;5005419;28;20065;-89
2022/03/09 11:53:59;;;;;;;13.15;9.48;;;10.10;55.60;;;;;;5021151;28;20381;-88
2022/03/09 11:56:40;;;;;;;13.05;9.40;;;10.20;55.90;;;;;;5029118;28;20402;-88
2022/03/09 11:59:14;;;;;;;15.23;9.32;;;10.20;54.10;;;;;;5011063;28;20394;-88
2022/03/09 12:02:07;;;;;;;13.18;9.40;;;10.30;54.60;;;;;;5012081;28;20175;-88
2022/03/09 12:04:53;;;;;;;13.30;9.35;;;10.30;54.80;;;;;;5006057;28;20057;-88
2022/03/09 12:07:33;;;;;;;13.32;9.48;;;10.50;54.30;;;;;;4993306;28;20046;-88
2022/03/09 12:10:06;;;;;;;12.48;9.32;;;10.60;54.20;;;;;;4999442;28;20052;-89
2022/03/09 12:12:34;;;;;;;12.73;9.57;;;10.70;54.10;;;;;;4998871;28;20037;-87
2022/03/09 12:15:04;;;;;;;12.32;9.52;;;10.70;53.80;;;;;;5017262;28;20042;-88
2022/03/09 12:17:42;;;;;;;12.95;9.88;;;10.80;53.80;;;;;;4979949;28;20049;-89
2022/03/09 12:20:25;;;;;;;13.18;9.60;;;10.80;53.50;;;;;;5029085;28;20045;-88
2022/03/09 12:22:58;;;;;;;13.80;9.60;;;10.80;53.10;;;;;;5012481;28;20045;-89
2022/03/09 12:25:40;;;;;;;12.15;9.00;;;10.90;53.30;;;;;;4999230;28;20053;-89
2022/03/09 12:28:24;;;;;;;14.43;10.30;;;10.90;52.80;;;;;;4994037;28;21225;-87
2022/03/09 12:31:20;;;;;;;14.55;9.93;;;11.00;52.90;;;;;;5011407;28;20120;-91
2022/03/09 12:33:50;;;;;;;12.82;9.50;;;11.00;52.60;;;;;;5011562;28;20060;-89
2022/03/09 12:36:25;;;;;;;14.27;10.65;;;11.00;52.00;;;;;;4992586;28;20145;-91
2022/03/09 12:38:52;;;;;;;13.20;9.90;;;11.10;52.00;;;;;;4997574;28;20056;-91
2022/03/09 12:41:32;;;;;;;14.82;9.88;;;11.10;52.10;;;;;;4997163;28;20077;-88
2022/03/09 12:43:59;;;;;;;14.15;10.00;;;11.10;50.60;;;;;;5015588;28;20052;-88
2022/03/09 12:46:26;;;;;;;13.13;9.80;;;11.10;51.80;;;;;;5010995;28;20104;-88
2022/03/09 12:49:13;;;;;;;13.15;9.88;;;11.20;52.20;;;;;;5012666;28;20045;-88